sensor_id;sensor_type;location;lat;lon;timestamp;pressure;altitude;pressure_sealevel;temperature;humidity
74680;BME280;63211;48.548;2.704;2023-06-22T00:02:01;100873.28;;;24.51;61.69
74680;BME280;63211;48.548;2.704;2023-06-22T00:04:28;100859.78;;;24.50;61.52
74680;BME280;63211;48.548;2.704;2023-06-22T00:06:54;100866.97;;;24.51;62.01
74680;BME280;63211;48.548;2.704;2023-06-22T00:09:21;100855.38;;;24.49;61.98
74680;BME280;63211;48.548;2.704;2023-06-22T00:11:47;100854.84;;;24.52;61.77
74680;BME280;63211;48.548;2.704;2023-06-22T00:14:14;100856.22;;;24.49;61.58
74680;BME280;63211;48.548;2.704;2023-06-22T00:16:41;100841.63;;;24.49;61.63
74680;BME280;63211;48.548;2.704;2023-06-22T00:19:09;100840.53;;;24.50;61.95
74680;BME280;63211;48.548;2.704;2023-06-22T00:21:37;100841.63;;;24.49;61.78
74680;BME280;63211;48.548;2.704;2023-06-22T00:24:04;100847.13;;;24.49;61.62
74680;BME280;63211;48.548;2.704;2023-06-22T00:26:32;100854.28;;;24.50;61.98
74680;BME280;63211;48.548;2.704;2023-06-22T00:28:59;100831.97;;;24.46;61.78
74680;BME280;63211;48.548;2.704;2023-06-22T00:31:25;100839.94;;;24.48;61.67
74680;BME280;63211;48.548;2.704;2023-06-22T00:33:52;100830.03;;;24.47;61.74
74680;BME280;63211;48.548;2.704;2023-06-22T00:36:20;100825.63;;;24.46;61.55
74680;BME280;63211;48.548;2.704;2023-06-22T00:38:47;100819.28;;;24.45;61.48
74680;BME280;63211;48.548;2.704;2023-06-22T00:41:16;100813.78;;;24.45;61.59
74680;BME280;63211;48.548;2.704;2023-06-22T00:43:42;100814.03;;;24.44;61.53
74680;BME280;63211;48.548;2.704;2023-06-22T00:46:09;100814.88;;;24.44;61.51
74680;BME280;63211;48.548;2.704;2023-06-22T00:48:36;100819.53;;;24.44;61.40
74680;BME280;63211;48.548;2.704;2023-06-22T00:51:03;100820.38;;;24.44;61.54
74680;BME280;63211;48.548;2.704;2023-06-22T00:53:31;100821.47;;;24.43;61.53
74680;BME280;63211;48.548;2.704;2023-06-22T00:56:00;100826.41;;;24.41;61.30
74680;BME280;63211;48.548;2.704;2023-06-22T00:58:28;100820.28;;;24.34;61.33
74680;BME280;63211;48.548;2.704;2023-06-22T01:00:55;100836.59;;;24.41;61.38
74680;BME280;63211;48.548;2.704;2023-06-22T01:03:23;100839.06;;;24.42;61.22
74680;BME280;63211;48.548;2.704;2023-06-22T01:05:50;100834.66;;;24.41;61.52
74680;BME280;63211;48.548;2.704;2023-06-22T01:08:26;100829.41;;;24.40;61.31
74680;BME280;63211;48.548;2.704;2023-06-22T01:11:01;100823.09;;;24.39;61.23
74680;BME280;63211;48.548;2.704;2023-06-22T01:13:35;100819.75;;;24.37;61.39
74680;BME280;63211;48.548;2.704;2023-06-22T01:16:07;100811.50;;;24.37;61.17
74680;BME280;63211;48.548;2.704;2023-06-22T01:18:40;100799.94;;;24.35;61.40
74680;BME280;63211;48.548;2.704;2023-06-22T01:21:11;100804.59;;;24.35;61.44
74680;BME280;63211;48.548;2.704;2023-06-22T01:23:51;100804.59;;;24.35;61.51
74680;BME280;63211;48.548;2.704;2023-06-22T01:26:27;100802.09;;;24.33;61.38
74680;BME280;63211;48.548;2.704;2023-06-22T01:28:57;100801.84;;;24.29;61.49
74680;BME280;63211;48.548;2.704;2023-06-22T01:31:25;100795.75;;;24.27;61.41
74680;BME280;63211;48.548;2.704;2023-06-22T01:33:58;100793.25;;;24.26;61.42
74680;BME280;63211;48.548;2.704;2023-06-22T01:36:26;100782.53;;;24.24;61.43
74680;BME280;63211;48.548;2.704;2023-06-22T01:38:53;100787.50;;;24.27;61.60
74680;BME280;63211;48.548;2.704;2023-06-22T01:41:21;100774.84;;;24.26;61.43
74680;BME280;63211;48.548;2.704;2023-06-22T01:43:48;100769.34;;;24.26;61.44
74680;BME280;63211;48.548;2.704;2023-06-22T01:46:17;100758.31;;;24.26;61.34
74680;BME280;63211;48.548;2.704;2023-06-22T01:48:46;100753.91;;;24.25;61.42
74680;BME280;63211;48.548;2.704;2023-06-22T01:51:13;100748.06;;;24.22;61.32
74680;BME280;63211;48.548;2.704;2023-06-22T01:53:40;100741.25;;;24.24;61.47
74680;BME280;63211;48.548;2.704;2023-06-22T01:56:06;100738.72;;;24.23;61.72
74680;BME280;63211;48.548;2.704;2023-06-22T01:58:33;100735.41;;;24.21;61.41
74680;BME280;63211;48.548;2.704;2023-06-22T02:01:09;100734.00;;;24.18;61.29
74680;BME280;63211;48.548;2.704;2023-06-22T02:03:41;100732.09;;;24.19;61.19
74680;BME280;63211;48.548;2.704;2023-06-22T02:06:13;100732.09;;;24.19;61.49
74680;BME280;63211;48.548;2.704;2023-06-22T02:08:47;100730.44;;;24.18;61.26
74680;BME280;63211;48.548;2.704;2023-06-22T02:11:17;100725.75;;;24.18;61.40
74680;BME280;63211;48.548;2.704;2023-06-22T02:13:45;100734.28;;;24.17;61.58
74680;BME280;63211;48.548;2.704;2023-06-22T02:16:13;100740.59;;;24.17;61.41
74680;BME280;63211;48.548;2.704;2023-06-22T02:18:47;100750.78;;;24.17;61.17
74680;BME280;63211;48.548;2.704;2023-06-22T02:21:16;100754.34;;;24.17;61.36
74680;BME280;63211;48.548;2.704;2023-06-22T02:23:42;100757.09;;;24.17;61.46
74680;BME280;63211;48.548;2.704;2023-06-22T02:26:09;100761.78;;;24.17;61.06
74680;BME280;63211;48.548;2.704;2023-06-22T02:28:36;100749.38;;;24.09;61.53
74680;BME280;63211;48.548;2.704;2023-06-22T02:31:03;100759.28;;;24.15;61.59
74680;BME280;63211;48.548;2.704;2023-06-22T02:33:29;100750.47;;;24.13;61.24
74680;BME280;63211;48.548;2.704;2023-06-22T02:35:57;100757.63;;;24.14;61.35
74680;BME280;63211;48.548;2.704;2023-06-22T02:38:24;100748.81;;;24.12;61.37
74680;BME280;63211;48.548;2.704;2023-06-22T02:40:50;100756.22;;;24.12;61.59
74680;BME280;63211;48.548;2.704;2023-06-22T02:43:17;100737.78;;;24.07;61.30
74680;BME280;63211;48.548;2.704;2023-06-22T02:45:44;100745.22;;;24.12;61.51
74680;BME280;63211;48.548;2.704;2023-06-22T02:48:11;100741.66;;;24.11;61.47
74680;BME280;63211;48.548;2.704;2023-06-22T02:50:37;100725.97;;;24.12;61.22
74680;BME280;63211;48.548;2.704;2023-06-22T02:53:05;100720.47;;;24.12;61.48
74680;BME280;63211;48.548;2.704;2023-06-22T02:55:32;100716.09;;;24.11;61.57
74680;BME280;63211;48.548;2.704;2023-06-22T02:57:58;100685.44;;;23.97;61.29
74680;BME280;63211;48.548;2.704;2023-06-22T03:00:28;100702.59;;;24.09;61.73
74680;BME280;63211;48.548;2.704;2023-06-22T03:02:56;100690.19;;;24.07;61.22
74680;BME280;63211;48.548;2.704;2023-06-22T03:05:23;100678.63;;;24.05;61.21
74680;BME280;63211;48.548;2.704;2023-06-22T03:07:51;100681.69;;;24.08;61.08
74680;BME280;63211;48.548;2.704;2023-06-22T03:10:19;100671.78;;;24.07;61.53
74680;BME280;63211;48.548;2.704;2023-06-22T03:12:45;100666.28;;;24.07;61.42
74680;BME280;63211;48.548;2.704;2023-06-22T03:15:12;100656.06;;;24.03;61.15
74680;BME280;63211;48.548;2.704;2023-06-22T03:17:40;100674.53;;;24.07;61.40
74680;BME280;63211;48.548;2.704;2023-06-22T03:20:08;100677.28;;;24.07;61.05
74680;BME280;63211;48.548;2.704;2023-06-22T03:22:36;100664.88;;;24.05;61.31
74680;BME280;63211;48.548;2.704;2023-06-22T03:25:03;100672.03;;;24.06;61.28
74680;BME280;63211;48.548;2.704;2023-06-22T03:27:31;100672.31;;;24.04;61.18
74680;BME280;63211;48.548;2.704;2023-06-22T03:29:58;100666.22;;;24.02;61.36
74680;BME280;63211;48.548;2.704;2023-06-22T03:32:24;100669.56;;;24.04;61.46
74680;BME280;63211;48.548;2.704;2023-06-22T03:34:53;100658.53;;;24.04;61.21
74680;BME280;63211;48.548;2.704;2023-06-22T03:37:19;100639.03;;;24.06;61.08
74680;BME280;63211;48.548;2.704;2023-06-22T03:39:46;100641.53;;;24.07;61.19
74680;BME280;63211;48.548;2.704;2023-06-22T03:42:13;100654.72;;;24.05;61.07
74680;BME280;63211;48.548;2.704;2023-06-22T03:44:41;100672.56;;;24.03;60.92
74680;BME280;63211;48.548;2.704;2023-06-22T03:47:07;100684.91;;;24.00;61.52
74680;BME280;63211;48.548;2.704;2023-06-22T03:49:35;100693.72;;;24.02;61.66
74680;BME280;63211;48.548;2.704;2023-06-22T03:52:02;100697.06;;;24.04;60.94
74680;BME280;63211;48.548;2.704;2023-06-22T03:54:29;100702.75;;;23.97;61.08
74680;BME280;63211;48.548;2.704;2023-06-22T03:56:57;100714.59;;;23.98;61.47
74680;BME280;63211;48.548;2.704;2023-06-22T03:59:24;100711.59;;;23.99;60.76
74680;BME280;63211;48.548;2.704;2023-06-22T04:01:52;100705.25;;;23.99;61.15
74680;BME280;63211;48.548;2.704;2023-06-22T04:04:19;100705.25;;;23.99;61.13
74680;BME280;63211;48.548;2.704;2023-06-22T04:06:45;100692.59;;;23.98;60.97
74680;BME280;63211;48.548;2.704;2023-06-22T04:09:12;100686.25;;;23.97;61.03
74680;BME280;63211;48.548;2.704;2023-06-22T04:11:38;100686.25;;;23.97;61.20
74680;BME280;63211;48.548;2.704;2023-06-22T04:14:05;100692.59;;;23.98;61.27
74680;BME280;63211;48.548;2.704;2023-06-22T04:16:32;100694.78;;;23.96;61.01
74680;BME280;63211;48.548;2.704;2023-06-22T04:19:00;100688.44;;;23.95;60.97
74680;BME280;63211;48.548;2.704;2023-06-22T04:21:26;100689.28;;;23.96;60.92
74680;BME280;63211;48.548;2.704;2023-06-22T04:23:53;100686.53;;;23.96;60.86
74680;BME280;63211;48.548;2.704;2023-06-22T04:26:20;100689.28;;;23.96;60.78
74680;BME280;63211;48.548;2.704;2023-06-22T04:28:47;100682.13;;;23.95;61.25
74680;BME280;63211;48.548;2.704;2023-06-22T04:31:17;100682.38;;;23.93;61.16
74680;BME280;63211;48.548;2.704;2023-06-22T04:33:44;100683.22;;;23.94;60.60
74680;BME280;63211;48.548;2.704;2023-06-22T04:36:12;100683.22;;;23.94;60.96
74680;BME280;63211;48.548;2.704;2023-06-22T04:38:40;100688.97;;;23.92;60.85
74680;BME280;63211;48.548;2.704;2023-06-22T04:41:07;100684.81;;;23.85;60.51
74680;BME280;63211;48.548;2.704;2023-06-22T04:43:35;100707.97;;;23.94;60.70
74680;BME280;63211;48.548;2.704;2023-06-22T04:46:02;100704.63;;;23.92;61.01
74680;BME280;63211;48.548;2.704;2023-06-22T04:48:29;100712.34;;;23.90;60.54
74680;BME280;63211;48.548;2.704;2023-06-22T04:50:58;100708.78;;;23.89;60.47
74680;BME280;63211;48.548;2.704;2023-06-22T04:53:31;100709.03;;;23.88;60.67
74680;BME280;63211;48.548;2.704;2023-06-22T04:55:58;100717.56;;;23.91;61.35
74680;BME280;63211;48.548;2.704;2023-06-22T04:58:24;100714.28;;;23.89;60.68
74680;BME280;63211;48.548;2.704;2023-06-22T05:00:54;100716.72;;;23.91;61.14
74680;BME280;63211;48.548;2.704;2023-06-22T05:03:22;100691.34;;;23.79;60.84
74680;BME280;63211;48.548;2.704;2023-06-22T05:05:51;100695.28;;;23.88;60.83
74680;BME280;63211;48.548;2.704;2023-06-22T05:08:18;100685.38;;;23.87;60.80
74680;BME280;63211;48.548;2.704;2023-06-22T05:10:46;100659.22;;;23.84;60.91
74680;BME280;63211;48.548;2.704;2023-06-22T05:13:12;100653.72;;;23.84;61.26
74680;BME280;63211;48.548;2.704;2023-06-22T05:15:39;100638.53;;;23.77;61.00
74680;BME280;63211;48.548;2.704;2023-06-22T05:18:05;100656.47;;;23.84;61.36
74680;BME280;63211;48.548;2.704;2023-06-22T05:20:32;100658.97;;;23.86;61.17
74680;BME280;63211;48.548;2.704;2023-06-22T05:23:01;100655.13;;;23.87;60.89
74680;BME280;63211;48.548;2.704;2023-06-22T05:25:28;100658.13;;;23.85;61.12
74680;BME280;63211;48.548;2.704;2023-06-22T05:27:59;100663.91;;;23.84;60.53
74680;BME280;63211;48.548;2.704;2023-06-22T05:30:27;100665.81;;;23.83;61.10
74680;BME280;63211;48.548;2.704;2023-06-22T05:32:53;100664.47;;;23.86;60.55
74680;BME280;63211;48.548;2.704;2023-06-22T05:35:20;100668.88;;;23.87;60.53
74680;BME280;63211;48.548;2.704;2023-06-22T05:37:46;100660.31;;;23.83;60.81
74680;BME280;63211;48.548;2.704;2023-06-22T05:40:13;100670.78;;;23.86;60.94
74680;BME280;63211;48.548;2.704;2023-06-22T05:42:40;100670.22;;;23.84;60.60
74680;BME280;63211;48.548;2.704;2023-06-22T05:45:09;100670.78;;;23.86;60.43
74680;BME280;63211;48.548;2.704;2023-06-22T05:47:35;100669.41;;;23.84;60.48
74680;BME280;63211;48.548;2.704;2023-06-22T05:50:02;100668.88;;;23.87;60.59
74680;BME280;63211;48.548;2.704;2023-06-22T05:52:32;100662.25;;;23.83;60.76
74680;BME280;63211;48.548;2.704;2023-06-22T05:54:58;100662.28;;;23.88;60.40
74680;BME280;63211;48.548;2.704;2023-06-22T05:57:25;100667.78;;;23.88;60.16
74680;BME280;63211;48.548;2.704;2023-06-22T05:59:51;100671.38;;;23.93;61.00
74680;BME280;63211;48.548;2.704;2023-06-22T06:02:20;100670.59;;;23.98;60.88
74680;BME280;63211;48.548;2.704;2023-06-22T06:04:47;100681.59;;;23.98;60.72
74680;BME280;63211;48.548;2.704;2023-06-22T06:07:13;100675.00;;;23.99;60.37
74680;BME280;63211;48.548;2.704;2023-06-22T06:09:40;100664.09;;;23.77;60.62
74680;BME280;63211;48.548;2.704;2023-06-22T06:12:07;100662.31;;;23.61;61.17
74680;BME280;63211;48.548;2.704;2023-06-22T06:14:34;100655.69;;;23.57;60.90
74680;BME280;63211;48.548;2.704;2023-06-22T06:17:00;100645.00;;;23.60;60.73
74680;BME280;63211;48.548;2.704;2023-06-22T06:19:28;100645.00;;;23.60;61.07
74680;BME280;63211;48.548;2.704;2023-06-22T06:21:55;100643.59;;;23.58;61.21
74680;BME280;63211;48.548;2.704;2023-06-22T06:24:22;100629.81;;;23.53;61.31
74680;BME280;63211;48.548;2.704;2023-06-22T06:26:48;100640.75;;;23.48;61.29
74680;BME280;63211;48.548;2.704;2023-06-22T06:29:15;100641.53;;;23.43;61.68
74680;BME280;63211;48.548;2.704;2023-06-22T06:31:42;100641.53;;;23.43;61.76
74680;BME280;63211;48.548;2.704;2023-06-22T06:34:09;100636.28;;;23.42;61.26
74680;BME280;63211;48.548;2.704;2023-06-22T06:36:37;100634.88;;;23.39;61.50
74680;BME280;63211;48.548;2.704;2023-06-22T06:39:03;100621.94;;;23.35;61.73
74680;BME280;63211;48.548;2.704;2023-06-22T06:41:30;100617.78;;;23.32;61.70
74680;BME280;63211;48.548;2.704;2023-06-22T06:43:57;100617.00;;;23.37;61.63
74680;BME280;63211;48.548;2.704;2023-06-22T06:46:23;100622.75;;;23.35;61.56
74680;BME280;63211;48.548;2.704;2023-06-22T06:48:50;100618.34;;;23.34;62.09
74680;BME280;63211;48.548;2.704;2023-06-22T06:51:17;100609.59;;;23.37;61.62
74680;BME280;63211;48.548;2.704;2023-06-22T06:53:45;100610.38;;;23.33;61.74
74680;BME280;63211;48.548;2.704;2023-06-22T06:56:11;100614.47;;;23.30;61.77
74680;BME280;63211;48.548;2.704;2023-06-22T06:58:40;100607.88;;;23.31;62.04
74680;BME280;63211;48.548;2.704;2023-06-22T07:01:07;100600.47;;;23.31;61.55
74680;BME280;63211;48.548;2.704;2023-06-22T07:03:34;100597.13;;;23.24;61.88
74680;BME280;63211;48.548;2.704;2023-06-22T07:06:01;100599.31;;;23.22;61.76
74680;BME280;63211;48.548;2.704;2023-06-22T07:08:27;100604.22;;;23.20;62.27
74680;BME280;63211;48.548;2.704;2023-06-22T07:10:56;100605.31;;;23.19;62.28
74680;BME280;63211;48.548;2.704;2023-06-22T07:13:23;100610.50;;;23.16;62.10
74680;BME280;63211;48.548;2.704;2023-06-22T07:15:49;100607.22;;;23.19;62.23
74680;BME280;63211;48.548;2.704;2023-06-22T07:18:16;100611.06;;;23.18;62.47
74680;BME280;63211;48.548;2.704;2023-06-22T07:20:43;100613.50;;;23.14;62.42
74680;BME280;63211;48.548;2.704;2023-06-22T07:23:09;100619.81;;;23.15;62.04
74680;BME280;63211;48.548;2.704;2023-06-22T07:25:36;100620.59;;;23.10;62.66
74680;BME280;63211;48.548;2.704;2023-06-22T07:28:06;100627.47;;;23.13;62.55
74680;BME280;63211;48.548;2.704;2023-06-22T07:30:33;100624.78;;;23.18;62.67
74680;BME280;63211;48.548;2.704;2023-06-22T07:33:00;100632.31;;;23.27;63.23
74680;BME280;63211;48.548;2.704;2023-06-22T07:35:29;100635.00;;;23.22;65.30
74680;BME280;63211;48.548;2.704;2023-06-22T07:37:56;100635.66;;;23.08;65.59
74680;BME280;63211;48.548;2.704;2023-06-22T07:40:22;100641.22;;;23.13;65.24
74680;BME280;63211;48.548;2.704;2023-06-22T07:42:49;100638.69;;;23.06;65.62
74680;BME280;63211;48.548;2.704;2023-06-22T07:45:18;100641.94;;;23.03;65.61
74680;BME280;63211;48.548;2.704;2023-06-22T07:47:45;100639.72;;;23.00;65.81
74680;BME280;63211;48.548;2.704;2023-06-22T07:50:11;100640.31;;;23.07;66.09
74680;BME280;63211;48.548;2.704;2023-06-22T07:52:38;100638.16;;;23.09;66.62
74680;BME280;63211;48.548;2.704;2023-06-22T07:55:05;100629.66;;;23.11;67.01
74680;BME280;63211;48.548;2.704;2023-06-22T07:57:31;100630.75;;;23.10;67.37
74680;BME280;63211;48.548;2.704;2023-06-22T07:59:59;100632.91;;;23.08;66.94
74680;BME280;63211;48.548;2.704;2023-06-22T08:02:27;100613.16;;;23.06;67.42
74680;BME280;63211;48.548;2.704;2023-06-22T08:04:54;100617.00;;;23.10;67.56
74680;BME280;63211;48.548;2.704;2023-06-22T08:07:20;100609.59;;;23.10;67.11
74680;BME280;63211;48.548;2.704;2023-06-22T08:09:47;100603.00;;;23.06;67.21
74680;BME280;63211;48.548;2.704;2023-06-22T08:12:15;100604.63;;;23.07;67.11
74680;BME280;63211;48.548;2.704;2023-06-22T08:14:42;100604.38;;;23.09;67.97
74680;BME280;63211;48.548;2.704;2023-06-22T08:17:09;100608.78;;;23.10;67.62
74680;BME280;63211;48.548;2.704;2023-06-22T08:19:38;100610.69;;;23.09;67.84
74680;BME280;63211;48.548;2.704;2023-06-22T08:22:05;100610.69;;;23.09;68.01
74680;BME280;63211;48.548;2.704;2023-06-22T08:24:32;100612.84;;;23.07;67.69
74680;BME280;63211;48.548;2.704;2023-06-22T08:26:58;100617.25;;;23.08;67.70
74680;BME280;63211;48.548;2.704;2023-06-22T08:29:25;100620.00;;;23.08;67.83
74680;BME280;63211;48.548;2.704;2023-06-22T08:31:51;100618.94;;;23.09;68.12
74680;BME280;63211;48.548;2.704;2023-06-22T08:34:18;100619.19;;;23.08;67.72
74680;BME280;63211;48.548;2.704;2023-06-22T08:36:48;100605.16;;;23.04;67.66
74680;BME280;63211;48.548;2.704;2023-06-22T08:39:18;100602.16;;;23.06;67.97
74680;BME280;63211;48.548;2.704;2023-06-22T08:41:44;100606.91;;;23.15;66.96
74680;BME280;63211;48.548;2.704;2023-06-22T08:44:11;100607.22;;;23.19;67.36
74680;BME280;63211;48.548;2.704;2023-06-22T08:46:37;100610.22;;;23.17;67.31
74680;BME280;63211;48.548;2.704;2023-06-22T08:49:06;100603.84;;;23.12;67.08
74680;BME280;63211;48.548;2.704;2023-06-22T08:51:33;100611.88;;;23.18;67.02
74680;BME280;63211;48.548;2.704;2023-06-22T08:54:01;100616.81;;;23.16;67.45
74680;BME280;63211;48.548;2.704;2023-06-22T08:56:28;100612.66;;;23.14;67.96
74680;BME280;63211;48.548;2.704;2023-06-22T08:58:54;100612.97;;;23.17;67.51
74680;BME280;63211;48.548;2.704;2023-06-22T09:01:21;100616.44;;;23.08;67.65
74680;BME280;63211;48.548;2.704;2023-06-22T09:03:48;100624.06;;;23.01;68.46
74680;BME280;63211;48.548;2.704;2023-06-22T09:06:19;100614.94;;;22.95;67.63
74680;BME280;63211;48.548;2.704;2023-06-22T09:08:46;100620.03;;;22.86;67.51
74680;BME280;63211;48.548;2.704;2023-06-22T09:11:14;100616.78;;;22.89;67.50
74680;BME280;63211;48.548;2.704;2023-06-22T09:13:41;100616.22;;;22.87;68.21
74680;BME280;63211;48.548;2.704;2023-06-22T09:16:08;100609.06;;;22.86;68.22
74680;BME280;63211;48.548;2.704;2023-06-22T09:18:34;100617.63;;;22.90;67.73
74680;BME280;63211;48.548;2.704;2023-06-22T09:21:01;100617.63;;;22.90;67.35
74680;BME280;63211;48.548;2.704;2023-06-22T09:23:28;100620.34;;;22.85;67.26
74680;BME280;63211;48.548;2.704;2023-06-22T09:25:55;100626.09;;;22.83;67.35
74680;BME280;63211;48.548;2.704;2023-06-22T09:28:23;100634.31;;;22.83;67.29
74680;BME280;63211;48.548;2.704;2023-06-22T09:30:49;100633.16;;;22.79;68.23
74680;BME280;63211;48.548;2.704;2023-06-22T09:33:16;100635.97;;;22.84;68.26
74680;BME280;63211;48.548;2.704;2023-06-22T09:35:45;100637.88;;;22.84;67.98
74680;BME280;63211;48.548;2.704;2023-06-22T09:38:11;100636.22;;;22.83;67.40
74680;BME280;63211;48.548;2.704;2023-06-22T09:40:38;100636.75;;;22.80;68.14
74680;BME280;63211;48.548;2.704;2023-06-22T09:43:05;100641.41;;;22.79;68.37
74680;BME280;63211;48.548;2.704;2023-06-22T09:45:33;100642.81;;;22.82;67.78
74680;BME280;63211;48.548;2.704;2023-06-22T09:48:00;100651.38;;;22.85;68.73
74680;BME280;63211;48.548;2.704;2023-06-22T09:50:26;100639.56;;;22.85;68.22
74680;BME280;63211;48.548;2.704;2023-06-22T09:52:53;100646.06;;;22.79;68.40
74680;BME280;63211;48.548;2.704;2023-06-22T09:55:20;100667.25;;;22.83;68.56
74680;BME280;63211;48.548;2.704;2023-06-22T09:57:47;100671.66;;;22.84;67.98
74680;BME280;63211;48.548;2.704;2023-06-22T10:00:16;100654.69;;;22.71;68.03
74680;BME280;63211;48.548;2.704;2023-06-22T10:02:46;100673.00;;;22.82;68.60
74680;BME280;63211;48.548;2.704;2023-06-22T10:05:13;100666.69;;;22.81;68.65
74680;BME280;63211;48.548;2.704;2023-06-22T10:07:39;100682.06;;;22.82;69.20
74680;BME280;63211;48.548;2.704;2023-06-22T10:10:09;100679.56;;;22.81;68.54
74680;BME280;63211;48.548;2.704;2023-06-22T10:12:35;100684.31;;;22.85;68.32
74680;BME280;63211;48.548;2.704;2023-06-22T10:15:02;100685.94;;;22.86;68.90
74680;BME280;63211;48.548;2.704;2023-06-22T10:17:29;100689.50;;;22.87;68.64
74680;BME280;63211;48.548;2.704;2023-06-22T10:19:57;100687.06;;;22.85;68.17
74680;BME280;63211;48.548;2.704;2023-06-22T10:22:24;100693.09;;;22.87;68.51
74680;BME280;63211;48.548;2.704;2023-06-22T10:24:50;100698.41;;;22.94;68.99
74680;BME280;63211;48.548;2.704;2023-06-22T10:27:17;100694.50;;;22.90;68.66
74680;BME280;63211;48.548;2.704;2023-06-22T10:29:43;100693.66;;;22.89;68.64
74680;BME280;63211;48.548;2.704;2023-06-22T10:32:10;100707.72;;;22.93;68.37
74680;BME280;63211;48.548;2.704;2023-06-22T10:34:37;100705.72;;;22.88;68.12
74680;BME280;63211;48.548;2.704;2023-06-22T10:37:05;100706.56;;;22.89;68.51
74680;BME280;63211;48.548;2.704;2023-06-22T10:39:32;100700.78;;;22.85;68.78
74680;BME280;63211;48.548;2.704;2023-06-22T10:41:58;100705.16;;;22.86;67.67
74680;BME280;63211;48.548;2.704;2023-06-22T10:44:25;100710.38;;;22.88;68.23
74680;BME280;63211;48.548;2.704;2023-06-22T10:46:52;100724.44;;;22.91;67.88
74680;BME280;63211;48.548;2.704;2023-06-22T10:49:18;100717.34;;;22.95;68.13
74680;BME280;63211;48.548;2.704;2023-06-22T10:51:45;100722.84;;;22.95;67.85
74680;BME280;63211;48.548;2.704;2023-06-22T10:54:13;100720.69;;;22.98;67.56
74680;BME280;63211;48.548;2.704;2023-06-22T10:56:42;100732.00;;;23.01;68.07
74680;BME280;63211;48.548;2.704;2023-06-22T10:59:09;100725.41;;;23.02;67.54
74680;BME280;63211;48.548;2.704;2023-06-22T11:01:35;100729.81;;;23.03;67.72
74680;BME280;63211;48.548;2.704;2023-06-22T11:04:02;100729.56;;;23.05;67.58
74680;BME280;63211;48.548;2.704;2023-06-22T11:06:29;100733.16;;;23.05;67.66
74680;BME280;63211;48.548;2.704;2023-06-22T11:08:55;100731.78;;;23.08;67.57
74680;BME280;63211;48.548;2.704;2023-06-22T11:11:25;100744.41;;;23.09;67.58
74680;BME280;63211;48.548;2.704;2023-06-22T11:13:52;100733.44;;;23.09;67.81
74680;BME280;63211;48.548;2.704;2023-06-22T11:16:18;100739.75;;;23.09;67.76
74680;BME280;63211;48.548;2.704;2023-06-22T11:18:45;100743.59;;;23.08;67.79
74680;BME280;63211;48.548;2.704;2023-06-22T11:21:12;100747.75;;;23.11;68.33
74680;BME280;63211;48.548;2.704;2023-06-22T11:23:38;100750.50;;;23.11;68.23
74680;BME280;63211;48.548;2.704;2023-06-22T11:26:05;100756.56;;;23.13;68.06
74680;BME280;63211;48.548;2.704;2023-06-22T11:28:33;100756.56;;;23.13;68.07
74680;BME280;63211;48.548;2.704;2023-06-22T11:30:59;100759.31;;;23.13;68.01
74680;BME280;63211;48.548;2.704;2023-06-22T11:33:27;100769.47;;;23.12;67.96
74680;BME280;63211;48.548;2.704;2023-06-22T11:35:53;100772.78;;;23.14;67.58
74680;BME280;63211;48.548;2.704;2023-06-22T11:38:21;100770.53;;;23.11;68.18
74680;BME280;63211;48.548;2.704;2023-06-22T11:40:48;100784.59;;;23.15;68.12
74680;BME280;63211;48.548;2.704;2023-06-22T11:43:14;100786.00;;;23.17;67.51
74680;BME280;63211;48.548;2.704;2023-06-22T11:45:42;100778.34;;;23.19;67.74
74680;BME280;63211;48.548;2.704;2023-06-22T11:48:09;100777.59;;;23.24;66.46
74680;BME280;63211;48.548;2.704;2023-06-22T11:50:36;100785.09;;;23.34;65.79
74680;BME280;63211;48.548;2.704;2023-06-22T11:53:02;100786.34;;;23.43;64.44
74680;BME280;63211;48.548;2.704;2023-06-22T11:55:29;100793.22;;;23.45;65.23
74680;BME280;63211;48.548;2.704;2023-06-22T11:57:57;100799.84;;;23.49;64.70
74680;BME280;63211;48.548;2.704;2023-06-22T12:00:27;100799.94;;;23.54;64.49
74680;BME280;63211;48.548;2.704;2023-06-22T12:02:55;100795.84;;;23.57;63.76
74680;BME280;63211;48.548;2.704;2023-06-22T12:05:22;100798.94;;;23.60;64.57
74680;BME280;63211;48.548;2.704;2023-06-22T12:07:50;100805.56;;;23.64;63.97
74680;BME280;63211;48.548;2.704;2023-06-22T12:10:17;100808.06;;;23.66;64.10
74680;BME280;63211;48.548;2.704;2023-06-22T12:12:44;100807.25;;;23.71;64.04
74680;BME280;63211;48.548;2.704;2023-06-22T12:15:10;100809.47;;;23.69;64.63
74680;BME280;63211;48.548;2.704;2023-06-22T12:17:37;100815.06;;;23.79;63.78
74680;BME280;63211;48.548;2.704;2023-06-22T12:20:07;100829.31;;;23.76;64.65
74680;BME280;63211;48.548;2.704;2023-06-22T12:22:34;100837.63;;;23.81;63.89
74680;BME280;63211;48.548;2.704;2023-06-22T12:25:03;100838.22;;;23.83;63.38
74680;BME280;63211;48.548;2.704;2023-06-22T12:27:30;100852.00;;;23.88;63.89
74680;BME280;63211;48.548;2.704;2023-06-22T12:29:56;100847.34;;;23.88;64.16
74680;BME280;63211;48.548;2.704;2023-06-22T12:32:23;100837.13;;;23.84;62.60
74680;BME280;63211;48.548;2.704;2023-06-22T12:34:50;100847.59;;;23.87;62.63
74680;BME280;63211;48.548;2.704;2023-06-22T12:37:19;100850.03;;;23.83;63.07
74680;BME280;63211;48.548;2.704;2023-06-22T12:39:45;100844.22;;;23.80;63.18
74680;BME280;63211;48.548;2.704;2023-06-22T12:42:12;100854.63;;;23.78;62.37
74680;BME280;63211;48.548;2.704;2023-06-22T12:44:39;100856.56;;;23.77;62.85
74680;BME280;63211;48.548;2.704;2023-06-22T12:47:06;100859.06;;;23.79;62.43
74680;BME280;63211;48.548;2.704;2023-06-22T12:49:33;100859.31;;;23.77;62.18
74680;BME280;63211;48.548;2.704;2023-06-22T12:52:00;100861.22;;;23.77;62.39